sensor_id;sensor_type;location;lat;lon;timestamp;pressure;altitude;pressure_sealevel;temperature;humidity
43436;BME280;36399;51.444;-2.018;2023-02-28T00:00:34;102557.16;;;-2.08;100.00
43436;BME280;36399;51.444;-2.018;2023-02-28T00:03:00;102565.81;;;-2.16;100.00
43436;BME280;36399;51.444;-2.018;2023-02-28T00:05:27;102569.44;;;-2.06;100.00
43436;BME280;36399;51.444;-2.018;2023-02-28T00:07:54;102568.31;;;-1.82;100.00
43436;BME280;36399;51.444;-2.018;2023-02-28T00:10:23;102575.59;;;-1.86;100.00
43436;BME280;36399;51.444;-2.018;2023-02-28T00:12:53;102579.41;;;-1.92;100.00
43436;BME280;36399;51.444;-2.018;2023-02-28T00:15:20;102602.16;;;-2.05;100.00
43436;BME280;36399;51.444;-2.018;2023-02-28T00:17:47;102593.50;;;-2.14;100.00
43436;BME280;36399;51.444;-2.018;2023-02-28T00:20:13;102601.22;;;-2.23;100.00
43436;BME280;36399;51.444;-2.018;2023-02-28T00:22:41;102599.72;;;-2.29;100.00
43436;BME280;36399;51.444;-2.018;2023-02-28T00:25:09;102604.56;;;-2.32;100.00
43436;BME280;36399;51.444;-2.018;2023-02-28T00:27:36;102608.66;;;-2.26;100.00
43436;BME280;36399;51.444;-2.018;2023-02-28T00:30:03;102613.06;;;-2.42;100.00
43436;BME280;36399;51.444;-2.018;2023-02-28T00:32:29;102617.16;;;-2.52;100.00
43436;BME280;36399;51.444;-2.018;2023-02-28T00:34:56;102615.44;;;-2.61;100.00
43436;BME280;36399;51.444;-2.018;2023-02-28T00:37:22;102615.19;;;-2.55;100.00
43436;BME280;36399;51.444;-2.018;2023-02-28T00:39:48;102609.09;;;-2.64;100.00
43436;BME280;36399;51.444;-2.018;2023-02-28T00:42:14;102615.44;;;-2.61;100.00
43436;BME280;36399;51.444;-2.018;2023-02-28T00:44:40;102612.47;;;-2.57;100.00
43436;BME280;36399;51.444;-2.018;2023-02-28T00:47:06;102613.06;;;-2.50;100.00
43436;BME280;36399;51.444;-2.018;2023-02-28T00:49:32;102613.06;;;-2.50;100.00
43436;BME280;36399;51.444;-2.018;2023-02-28T00:51:59;102617.00;;;-2.54;100.00
43436;BME280;36399;51.444;-2.018;2023-02-28T00:54:25;102620.47;;;-2.53;100.00
43436;BME280;36399;51.444;-2.018;2023-02-28T00:56:51;102631.47;;;-2.63;100.00
43436;BME280;36399;51.444;-2.018;2023-02-28T00:59:17;102628.13;;;-2.71;100.00
43436;BME280;36399;51.444;-2.018;2023-02-28T01:01:45;102630.56;;;-2.72;100.00
43436;BME280;36399;51.444;-2.018;2023-02-28T01:04:12;102639.91;;;-2.81;100.00
43436;BME280;36399;51.444;-2.018;2023-02-28T01:06:38;102638.25;;;-2.90;100.00
43436;BME280;36399;51.444;-2.018;2023-02-28T01:09:05;102632.50;;;-2.96;100.00
43436;BME280;36399;51.444;-2.018;2023-02-28T01:11:32;102637.47;;;-2.97;100.00
43436;BME280;36399;51.444;-2.018;2023-02-28T01:13:59;102637.94;;;-2.93;100.00
43436;BME280;36399;51.444;-2.018;2023-02-28T01:16:25;102637.47;;;-2.97;100.00
43436;BME280;36399;51.444;-2.018;2023-02-28T01:18:51;102645.19;;;-2.97;100.00
43436;BME280;36399;51.444;-2.018;2023-02-28T01:21:18;102642.63;;;-2.89;100.00
43436;BME280;36399;51.444;-2.018;2023-02-28T01:23:45;102641.13;;;-2.78;100.00
43436;BME280;36399;51.444;-2.018;2023-02-28T01:26:20;102647.78;;;-2.80;100.00
43436;BME280;36399;51.444;-2.018;2023-02-28T01:28:48;102647.47;;;-2.83;100.00
43436;BME280;36399;51.444;-2.018;2023-02-28T01:31:14;102649.28;;;-2.91;100.00
43436;BME280;36399;51.444;-2.018;2023-02-28T01:33:40;102655.31;;;-2.99;100.00
43436;BME280;36399;51.444;-2.018;2023-02-28T01:36:18;102655.31;;;-2.90;100.00
43436;BME280;36399;51.444;-2.018;2023-02-28T01:38:45;102647.47;;;-2.92;100.00
43436;BME280;36399;51.444;-2.018;2023-02-28T01:41:23;102653.03;;;-2.96;100.00
43436;BME280;36399;51.444;-2.018;2023-02-28T01:46:18;102656.31;;;-2.46;100.00
43436;BME280;36399;51.444;-2.018;2023-02-28T01:49:00;102652.25;;;-2.44;100.00
43436;BME280;36399;51.444;-2.018;2023-02-28T01:51:37;102658.59;;;-2.41;100.00
43436;BME280;36399;51.444;-2.018;2023-02-28T01:54:15;102663.88;;;-2.31;100.00
43436;BME280;36399;51.444;-2.018;2023-02-28T01:56:46;102663.59;;;-2.25;100.00
43436;BME280;36399;51.444;-2.018;2023-02-28T01:59:21;102669.34;;;-2.28;100.00
43436;BME280;36399;51.444;-2.018;2023-02-28T02:01:48;102663.28;;;-2.45;100.00
43436;BME280;36399;51.444;-2.018;2023-02-28T02:04:14;102673.25;;;-2.48;100.00
43436;BME280;36399;51.444;-2.018;2023-02-28T02:06:43;102670.19;;;-2.62;100.00
43436;BME280;36399;51.444;-2.018;2023-02-28T02:09:11;102662.00;;;-2.75;100.00
43436;BME280;36399;51.444;-2.018;2023-02-28T02:11:39;102667.13;;;-2.83;100.00
43436;BME280;36399;51.444;-2.018;2023-02-28T02:14:37;102665.47;;;-2.83;100.00
43436;BME280;36399;51.444;-2.018;2023-02-28T02:17:32;102658.06;;;-2.80;100.00
43436;BME280;36399;51.444;-2.018;2023-02-28T02:25:42;102669.25;;;-2.88;100.00
43436;BME280;36399;51.444;-2.018;2023-02-28T02:31:04;102678.03;;;-2.77;100.00
43436;BME280;36399;51.444;-2.018;2023-02-28T02:39:38;102682.88;;;-2.72;100.00
43436;BME280;36399;51.444;-2.018;2023-02-28T02:42:47;102680.00;;;-2.75;100.00
43436;BME280;36399;51.444;-2.018;2023-02-28T02:45:14;102682.56;;;-2.83;100.00
43436;BME280;36399;51.444;-2.018;2023-02-28T02:47:43;102688.28;;;-2.86;100.00
43436;BME280;36399;51.444;-2.018;2023-02-28T02:50:17;102687.22;;;-2.88;100.00
43436;BME280;36399;51.444;-2.018;2023-02-28T02:52:49;102687.34;;;-2.95;100.00
43436;BME280;36399;51.444;-2.018;2023-02-28T02:55:18;102690.69;;;-2.96;100.00
43436;BME280;36399;51.444;-2.018;2023-02-28T02:57:49;102686.28;;;-2.97;100.00
43436;BME280;36399;51.444;-2.018;2023-02-28T03:00:20;102691.31;;;-2.90;100.00
43436;BME280;36399;51.444;-2.018;2023-02-28T03:02:50;102687.09;;;-2.81;100.00
43436;BME280;36399;51.444;-2.018;2023-02-28T03:05:26;102695.13;;;-2.78;100.00
43436;BME280;36399;51.444;-2.018;2023-02-28T03:07:52;102696.50;;;-2.64;100.00
43436;BME280;36399;51.444;-2.018;2023-02-28T03:10:48;102697.16;;;-2.49;100.00
43436;BME280;36399;51.444;-2.018;2023-02-28T03:27:05;102695.22;;;-1.83;100.00
43436;BME280;36399;51.444;-2.018;2023-02-28T03:29:35;102701.41;;;-1.72;100.00
43436;BME280;36399;51.444;-2.018;2023-02-28T03:32:12;102697.63;;;-1.67;100.00
43436;BME280;36399;51.444;-2.018;2023-02-28T03:34:49;102690.94;;;-1.65;100.00
43436;BME280;36399;51.444;-2.018;2023-02-28T03:37:21;102696.84;;;-1.66;100.00
43436;BME280;36399;51.444;-2.018;2023-02-28T03:40:04;102692.75;;;-1.64;100.00
43436;BME280;36399;51.444;-2.018;2023-02-28T03:42:34;102704.41;;;-1.59;100.00
43436;BME280;36399;51.444;-2.018;2023-02-28T03:45:04;102697.59;;;-1.59;100.00
43436;BME280;36399;51.444;-2.018;2023-02-28T03:50:17;102705.94;;;-1.61;100.00
43436;BME280;36399;51.444;-2.018;2023-02-28T03:53:00;102709.72;;;-1.66;100.00
43436;BME280;36399;51.444;-2.018;2023-02-28T03:55:34;102714.72;;;-1.68;100.00
43436;BME280;36399;51.444;-2.018;2023-02-28T03:58:15;102699.28;;;-1.68;100.00
43436;BME280;36399;51.444;-2.018;2023-02-28T04:00:55;102695.34;;;-1.64;100.00
43436;BME280;36399;51.444;-2.018;2023-02-28T04:03:23;102697.00;;;-1.65;100.00
43436;BME280;36399;51.444;-2.018;2023-02-28T04:05:53;102684.28;;;-1.72;100.00
43436;BME280;36399;51.444;-2.018;2023-02-28T04:08:21;102691.75;;;-1.83;100.00
43436;BME280;36399;51.444;-2.018;2023-02-28T04:10:51;102699.03;;;-1.97;100.00
43436;BME280;36399;51.444;-2.018;2023-02-28T04:13:19;102712.91;;;-2.12;100.00
43436;BME280;36399;51.444;-2.018;2023-02-28T04:15:45;102709.13;;;-2.33;100.00
43436;BME280;36399;51.444;-2.018;2023-02-28T04:18:11;102705.94;;;-2.39;100.00
43436;BME280;36399;51.444;-2.018;2023-02-28T04:20:37;102714.72;;;-2.45;100.00
43436;BME280;36399;51.444;-2.018;2023-02-28T04:23:03;102718.94;;;-2.55;100.00
43436;BME280;36399;51.444;-2.018;2023-02-28T04:25:29;102710.56;;;-2.61;100.00
43436;BME280;36399;51.444;-2.018;2023-02-28T04:27:55;102715.31;;;-2.48;100.00
43436;BME280;36399;51.444;-2.018;2023-02-28T04:30:21;102723.78;;;-2.58;100.00
43436;BME280;36399;51.444;-2.018;2023-02-28T04:32:48;102725.38;;;-2.67;100.00
43436;BME280;36399;51.444;-2.018;2023-02-28T04:35:14;102721.88;;;-2.76;100.00
43436;BME280;36399;51.444;-2.018;2023-02-28T04:37:41;102726.72;;;-2.79;100.00
43436;BME280;36399;51.444;-2.018;2023-02-28T04:40:07;102725.22;;;-2.77;100.00
43436;BME280;36399;51.444;-2.018;2023-02-28T04:42:33;102730.47;;;-2.84;100.00
43436;BME280;36399;51.444;-2.018;2023-02-28T04:45:02;102726.41;;;-2.82;100.00
43436;BME280;36399;51.444;-2.018;2023-02-28T04:47:28;102733.66;;;-2.78;100.00
43436;BME280;36399;51.444;-2.018;2023-02-28T04:49:54;102727.59;;;-2.87;100.00
43436;BME280;36399;51.444;-2.018;2023-02-28T04:52:20;102728.78;;;-2.92;100.00
43436;BME280;36399;51.444;-2.018;2023-02-28T04:54:46;102730.09;;;-3.04;100.00
43436;BME280;36399;51.444;-2.018;2023-02-28T04:57:12;102732.03;;;-3.10;100.00
43436;BME280;36399;51.444;-2.018;2023-02-28T04:59:38;102738.00;;;-3.19;100.00
43436;BME280;36399;51.444;-2.018;2023-02-28T05:02:04;102733.19;;;-3.15;100.00
43436;BME280;36399;51.444;-2.018;2023-02-28T05:04:34;102735.00;;;-3.14;100.00
43436;BME280;36399;51.444;-2.018;2023-02-28T05:07:01;102744.88;;;-3.10;100.00
43436;BME280;36399;51.444;-2.018;2023-02-28T05:09:27;102740.56;;;-2.94;100.00
43436;BME280;36399;51.444;-2.018;2023-02-28T05:11:54;102746.31;;;-2.97;100.00
43436;BME280;36399;51.444;-2.018;2023-02-28T05:14:21;102748.53;;;-3.08;100.00
43436;BME280;36399;51.444;-2.018;2023-02-28T05:16:47;102751.59;;;-3.20;100.00
43436;BME280;36399;51.444;-2.018;2023-02-28T05:19:13;102745.53;;;-3.29;100.00
43436;BME280;36399;51.444;-2.018;2023-02-28T05:21:41;102756.06;;;-3.34;100.00
43436;BME280;36399;51.444;-2.018;2023-02-28T05:24:10;102756.66;;;-3.37;100.00
43436;BME280;36399;51.444;-2.018;2023-02-28T05:26:40;102763.59;;;-3.36;100.00
43436;BME280;36399;51.444;-2.018;2023-02-28T05:29:06;102760.34;;;-3.26;100.00
43436;BME280;36399;51.444;-2.018;2023-02-28T05:31:33;102763.38;;;-3.22;100.00
43436;BME280;36399;51.444;-2.018;2023-02-28T05:33:59;102763.09;;;-3.16;100.00
43436;BME280;36399;51.444;-2.018;2023-02-28T05:36:25;102754.72;;;-3.06;100.00
43436;BME280;36399;51.444;-2.018;2023-02-28T05:38:51;102759.94;;;-2.89;100.00
43436;BME280;36399;51.444;-2.018;2023-02-28T05:41:19;102755.75;;;-2.80;100.00
43436;BME280;36399;51.444;-2.018;2023-02-28T05:43:47;102753.47;;;-2.77;100.00
43436;BME280;36399;51.444;-2.018;2023-02-28T05:48:50;102758.75;;;-2.84;100.00
43436;BME280;36399;51.444;-2.018;2023-02-28T05:51:17;102767.66;;;-2.89;100.00
43436;BME280;36399;51.444;-2.018;2023-02-28T05:53:43;102769.47;;;-2.88;100.00
43436;BME280;36399;51.444;-2.018;2023-02-28T05:56:10;102775.34;;;-2.89;100.00
43436;BME280;36399;51.444;-2.018;2023-02-28T05:58:37;102768.72;;;-2.87;100.00
43436;BME280;36399;51.444;-2.018;2023-02-28T06:03:54;102786.41;;;-2.57;100.00
43436;BME280;36399;51.444;-2.018;2023-02-28T06:06:22;102781.59;;;-2.45;100.00
43436;BME280;36399;51.444;-2.018;2023-02-28T06:08:48;102776.44;;;-2.45;100.00
43436;BME280;36399;51.444;-2.018;2023-02-28T06:11:20;102783.09;;;-2.47;100.00
43436;BME280;36399;51.444;-2.018;2023-02-28T06:13:46;102774.94;;;-2.43;100.00
43436;BME280;36399;51.444;-2.018;2023-02-28T06:16:12;102774.63;;;-2.46;100.00
43436;BME280;36399;51.444;-2.018;2023-02-28T06:18:39;102774.31;;;-2.49;100.00
43436;BME280;36399;51.444;-2.018;2023-02-28T06:21:05;102772.81;;;-2.47;100.00
43436;BME280;36399;51.444;-2.018;2023-02-28T06:23:34;102774.31;;;-2.49;100.00
43436;BME280;36399;51.444;-2.018;2023-02-28T06:26:01;102772.19;;;-2.53;100.00
43436;BME280;36399;51.444;-2.018;2023-02-28T06:28:27;102776.88;;;-2.49;100.00
43436;BME280;36399;51.444;-2.018;2023-02-28T06:30:55;102780.53;;;-2.39;100.00
43436;BME280;36399;51.444;-2.018;2023-02-28T06:33:21;102790.41;;;-2.26;100.00
43436;BME280;36399;51.444;-2.018;2023-02-28T06:35:50;102788.19;;;-1.97;100.00
43436;BME280;36399;51.444;-2.018;2023-02-28T06:38:17;102791.69;;;-1.79;100.00
43436;BME280;36399;51.444;-2.018;2023-02-28T06:40:44;102788.66;;;-1.75;100.00
43436;BME280;36399;51.444;-2.018;2023-02-28T06:43:13;102788.34;;;-1.61;100.00
43436;BME280;36399;51.444;-2.018;2023-02-28T06:45:43;102782.59;;;-1.59;100.00
43436;BME280;36399;51.444;-2.018;2023-02-28T06:48:12;102794.28;;;-1.45;100.00
43436;BME280;36399;51.444;-2.018;2023-02-28T06:50:42;102784.88;;;-1.44;100.00
43436;BME280;36399;51.444;-2.018;2023-02-28T06:53:11;102785.25;;;-1.14;100.00
43436;BME280;36399;51.444;-2.018;2023-02-28T06:55:38;102791.50;;;-1.29;100.00
43436;BME280;36399;51.444;-2.018;2023-02-28T06:58:05;102795.28;;;-1.25;100.00
43436;BME280;36399;51.444;-2.018;2023-02-28T07:00:51;102794.38;;;-1.26;100.00
43436;BME280;36399;51.444;-2.018;2023-02-28T07:03:17;102800.44;;;-1.25;100.00
43436;BME280;36399;51.444;-2.018;2023-02-28T07:05:46;102799.53;;;-1.17;100.00
43436;BME280;36399;51.444;-2.018;2023-02-28T07:08:13;102805.25;;;-1.11;100.00
43436;BME280;36399;51.444;-2.018;2023-02-28T07:10:40;102808.91;;;-1.01;100.00
43436;BME280;36399;51.444;-2.018;2023-02-28T07:13:07;102807.06;;;-0.93;100.00
43436;BME280;36399;51.444;-2.018;2023-02-28T07:15:35;102806.13;;;-0.85;100.00
43436;BME280;36399;51.444;-2.018;2023-02-28T07:18:02;102807.28;;;-0.73;100.00
43436;BME280;36399;51.444;-2.018;2023-02-28T07:20:29;102812.75;;;-0.70;100.00
43436;BME280;36399;51.444;-2.018;2023-02-28T07:22:55;102806.34;;;-0.65;100.00
43436;BME280;36399;51.444;-2.018;2023-02-28T07:27:50;102803.88;;;-0.54;100.00
43436;BME280;36399;51.444;-2.018;2023-02-28T07:30:19;102807.44;;;-0.35;100.00
43436;BME280;36399;51.444;-2.018;2023-02-28T07:32:46;102808.94;;;-0.10;100.00
43436;BME280;36399;51.444;-2.018;2023-02-28T07:35:13;102806.00;;;0.05;100.00
43436;BME280;36399;51.444;-2.018;2023-02-28T07:37:44;102806.22;;;0.16;100.00
43436;BME280;36399;51.444;-2.018;2023-02-28T07:40:13;102804.88;;;0.30;100.00
43436;BME280;36399;51.444;-2.018;2023-02-28T07:42:42;102793.84;;;0.41;100.00
43436;BME280;36399;51.444;-2.018;2023-02-28T07:45:09;102797.56;;;0.53;100.00
43436;BME280;36399;51.444;-2.018;2023-02-28T07:47:38;102797.81;;;0.75;100.00
43436;BME280;36399;51.444;-2.018;2023-02-28T07:50:06;102815.59;;;0.91;100.00
43436;BME280;36399;51.444;-2.018;2023-02-28T07:52:32;102804.31;;;1.09;100.00
43436;BME280;36399;51.444;-2.018;2023-02-28T07:54:59;102806.16;;;1.20;100.00
43436;BME280;36399;51.444;-2.018;2023-02-28T07:57:25;102809.19;;;1.55;100.00
43436;BME280;36399;51.444;-2.018;2023-02-28T07:59:51;102807.31;;;1.73;100.00
43436;BME280;36399;51.444;-2.018;2023-02-28T08:02:18;102810.03;;;1.85;100.00
43436;BME280;36399;51.444;-2.018;2023-02-28T08:04:46;102808.09;;;2.03;100.00
43436;BME280;36399;51.444;-2.018;2023-02-28T08:07:14;102816.78;;;2.13;100.00
43436;BME280;36399;51.444;-2.018;2023-02-28T08:09:42;102816.66;;;2.22;100.00
43436;BME280;36399;51.444;-2.018;2023-02-28T08:12:09;102812.50;;;2.34;100.00
43436;BME280;36399;51.444;-2.018;2023-02-28T08:14:36;102813.75;;;2.49;100.00
43436;BME280;36399;51.444;-2.018;2023-02-28T08:17:03;102809.34;;;2.48;100.00
43436;BME280;36399;51.444;-2.018;2023-02-28T08:19:30;102810.09;;;2.58;100.00
43436;BME280;36399;51.444;-2.018;2023-02-28T08:21:57;102809.59;;;2.62;100.00
43436;BME280;36399;51.444;-2.018;2023-02-28T08:24:23;102812.06;;;2.60;100.00
43436;BME280;36399;51.444;-2.018;2023-02-28T08:26:49;102811.41;;;2.63;100.00
43436;BME280;36399;51.444;-2.018;2023-02-28T08:29:16;102818.00;;;2.69;100.00
43436;BME280;36399;51.444;-2.018;2023-02-28T08:31:42;102818.34;;;2.84;100.00
43436;BME280;36399;51.444;-2.018;2023-02-28T08:34:11;102800.16;;;2.94;100.00
43436;BME280;36399;51.444;-2.018;2023-02-28T08:36:38;102799.31;;;3.05;100.00
43436;BME280;36399;51.444;-2.018;2023-02-28T08:39:05;102788.69;;;3.12;100.00
43436;BME280;36399;51.444;-2.018;2023-02-28T08:41:31;102791.50;;;3.15;100.00
43436;BME280;36399;51.444;-2.018;2023-02-28T08:43:57;102786.88;;;3.33;100.00
43436;BME280;36399;51.444;-2.018;2023-02-28T08:46:24;102779.19;;;3.35;100.00
43436;BME280;36399;51.444;-2.018;2023-02-28T08:48:55;102772.59;;;3.50;100.00
43436;BME280;36399;51.444;-2.018;2023-02-28T08:51:22;102770.16;;;3.63;100.00
43436;BME280;36399;51.444;-2.018;2023-02-28T08:53:53;102762.13;;;3.60;100.00
43436;BME280;36399;51.444;-2.018;2023-02-28T08:56:19;102752.63;;;3.49;100.00
43436;BME280;36399;51.444;-2.018;2023-02-28T08:58:47;102746.88;;;3.53;100.00
43436;BME280;36399;51.444;-2.018;2023-02-28T09:01:18;102743.44;;;3.64;100.00
43436;BME280;36399;51.444;-2.018;2023-02-28T09:03:46;102737.47;;;3.65;100.00
43436;BME280;36399;51.444;-2.018;2023-02-28T09:06:14;102727.22;;;3.78;100.00
43436;BME280;36399;51.444;-2.018;2023-02-28T09:08:41;102721.78;;;3.75;100.00
43436;BME280;36399;51.444;-2.018;2023-02-28T09:11:07;102714.59;;;3.95;100.00
43436;BME280;36399;51.444;-2.018;2023-02-28T09:13:34;102711.63;;;3.90;100.00
43436;BME280;36399;51.444;-2.018;2023-02-28T09:16:02;102709.16;;;3.92;100.00
43436;BME280;36399;51.444;-2.018;2023-02-28T09:18:28;102699.56;;;3.91;100.00
43436;BME280;36399;51.444;-2.018;2023-02-28T09:20:54;102693.69;;;3.93;100.00
43436;BME280;36399;51.444;-2.018;2023-02-28T09:23:24;102694.03;;;4.09;100.00
43436;BME280;36399;51.444;-2.018;2023-02-28T09:26:03;102674.59;;;4.16;100.00
43436;BME280;36399;51.444;-2.018;2023-02-28T09:28:33;102676.66;;;4.20;100.00
43436;BME280;36399;51.444;-2.018;2023-02-28T09:31:00;102669.41;;;4.28;100.00
43436;BME280;36399;51.444;-2.018;2023-02-28T09:33:26;102659.69;;;4.25;100.00
43436;BME280;36399;51.444;-2.018;2023-02-28T09:35:58;102656.28;;;4.38;100.00
43436;BME280;36399;51.444;-2.018;2023-02-28T09:38:25;102649.50;;;4.40;100.00
43436;BME280;36399;51.444;-2.018;2023-02-28T09:41:00;102643.97;;;4.35;100.00
43436;BME280;36399;51.444;-2.018;2023-02-28T09:43:32;102641.38;;;4.35;100.00
43436;BME280;36399;51.444;-2.018;2023-02-28T09:46:05;102630.00;;;4.58;100.00
43436;BME280;36399;51.444;-2.018;2023-02-28T09:48:37;102623.53;;;4.65;100.00
43436;BME280;36399;51.444;-2.018;2023-02-28T09:51:39;102610.53;;;4.77;100.00
43436;BME280;36399;51.444;-2.018;2023-02-28T09:54:16;102603.63;;;5.02;100.00
43436;BME280;36399;51.444;-2.018;2023-02-28T09:56:53;102595.34;;;5.07;100.00
43436;BME280;36399;51.444;-2.018;2023-02-28T10:05:11;102579.19;;;5.25;100.00
43436;BME280;36399;51.444;-2.018;2023-02-28T10:10:36;102572.25;;;6.16;100.00
43436;BME280;36399;51.444;-2.018;2023-02-28T10:13:37;102557.84;;;6.08;100.00
43436;BME280;36399;51.444;-2.018;2023-02-28T10:16:16;102567.28;;;5.93;100.00
43436;BME280;36399;51.444;-2.018;2023-02-28T10:21:39;102554.63;;;6.12;100.00
43436;BME280;36399;51.444;-2.018;2023-02-28T10:26:50;102559.03;;;6.26;100.00
43436;BME280;36399;51.444;-2.018;2023-02-28T10:29:18;102555.19;;;6.21;100.00
43436;BME280;36399;51.444;-2.018;2023-02-28T10:31:44;102551.81;;;6.09;100.00
43436;BME280;36399;51.444;-2.018;2023-02-28T10:34:12;102551.22;;;6.00;100.00
43436;BME280;36399;51.444;-2.018;2023-02-28T10:36:39;102551.81;;;6.09;100.00
43436;BME280;36399;51.444;-2.018;2023-02-28T10:39:34;102546.53;;;5.94;100.00
43436;BME280;36399;51.444;-2.018;2023-02-28T10:42:00;102559.03;;;5.87;100.00
43436;BME280;36399;51.444;-2.018;2023-02-28T10:44:26;102558.13;;;6.13;100.00
43436;BME280;36399;51.444;-2.018;2023-02-28T10:46:52;102563.41;;;6.41;100.00
43436;BME280;36399;51.444;-2.018;2023-02-28T10:49:28;102549.03;;;6.47;100.00
43436;BME280;36399;51.444;-2.018;2023-02-28T10:51:57;102548.97;;;6.19;100.00
43436;BME280;36399;51.444;-2.018;2023-02-28T10:54:30;102546.50;;;6.08;100.00
43436;BME280;36399;51.444;-2.018;2023-02-28T10:57:28;102551.84;;;5.96;100.00
43436;BME280;36399;51.444;-2.018;2023-02-28T11:00:25;102546.22;;;5.90;100.00
43436;BME280;36399;51.444;-2.018;2023-02-28T11:02:51;102557.63;;;6.05;100.00
43436;BME280;36399;51.444;-2.018;2023-02-28T11:05:29;102551.53;;;6.05;100.00
43436;BME280;36399;51.444;-2.018;2023-02-28T11:08:10;102551.41;;;6.16;100.00
43436;BME280;36399;51.444;-2.018;2023-02-28T11:10:38;102559.09;;;6.41;100.00
43436;BME280;36399;51.444;-2.018;2023-02-28T11:13:05;102546.75;;;6.39;100.00
43436;BME280;36399;51.444;-2.018;2023-02-28T11:15:34;102547.38;;;6.35;100.00
43436;BME280;36399;51.444;-2.018;2023-02-28T11:21:05;102536.66;;;6.17;100.00
43436;BME280;36399;51.444;-2.018;2023-02-28T11:23:34;102540.97;;;6.16;100.00
43436;BME280;36399;51.444;-2.018;2023-02-28T11:26:03;102544.78;;;6.08;100.00
43436;BME280;36399;51.444;-2.018;2023-02-28T11:36:26;102527.44;;;6.09;100.00
43436;BME280;36399;51.444;-2.018;2023-02-28T11:50:49;102509.31;;;6.66;100.00
43436;BME280;36399;51.444;-2.018;2023-02-28T12:01:19;102498.50;;;6.60;100.00
43436;BME280;36399;51.444;-2.018;2023-02-28T12:24:01;102478.88;;;6.52;100.00
43436;BME280;36399;51.444;-2.018;2023-02-28T12:26:44;102478.38;;;6.72;100.00
43436;BME280;36399;51.444;-2.018;2023-02-28T13:34:47;102375.56;;;7.29;100.00
43436;BME280;36399;51.444;-2.018;2023-02-28T13:39:49;102365.50;;;7.68;100.00
43436;BME280;36399;51.444;-2.018;2023-02-28T13:47:30;102340.03;;;7.80;100.00
43436;BME280;36399;51.444;-2.018;2023-02-28T13:55:49;102333.69;;;8.07;100.00
43436;BME280;36399;51.444;-2.018;2023-02-28T14:06:49;102328.59;;;7.78;100.00
43436;BME280;36399;51.444;-2.018;2023-02-28T14:15:01;102321.31;;;7.56;100.00
43436;BME280;36399;51.444;-2.018;2023-02-28T14:17:27;102321.06;;;7.51;100.00
43436;BME280;36399;51.444;-2.018;2023-02-28T14:19:54;102311.84;;;8.07;100.00
43436;BME280;36399;51.444;-2.018;2023-02-28T14:25:23;102308.69;;;8.30;100.00
43436;BME280;36399;51.444;-2.018;2023-02-28T14:28:12;102298.19;;;8.63;100.00
43436;BME280;36399;51.444;-2.018;2023-02-28T14:31:04;102287.16;;;8.86;100.00
43436;BME280;36399;51.444;-2.018;2023-02-28T14:36:37;102264.63;;;9.27;100.00
43436;BME280;36399;51.444;-2.018;2023-02-28T14:39:22;102270.69;;;8.89;100.00
43436;BME280;36399;51.444;-2.018;2023-02-28T14:41:49;102258.09;;;8.81;100.00
43436;BME280;36399;51.444;-2.018;2023-02-28T14:44:20;102259.19;;;8.85;100.00
43436;BME280;36399;51.444;-2.018;2023-02-28T14:46:52;102259.41;;;8.90;100.00
43436;BME280;36399;51.444;-2.018;2023-02-28T14:49:26;102237.00;;;9.33;100.00
43436;BME280;36399;51.444;-2.018;2023-02-28T14:52:06;102247.94;;;9.42;100.00
43436;BME280;36399;51.444;-2.018;2023-02-28T14:54:36;102236.91;;;9.12;100.00
43436;BME280;36399;51.444;-2.018;2023-02-28T14:57:03;102244.72;;;8.58;100.00
43436;BME280;36399;51.444;-2.018;2023-02-28T14:59:34;102259.59;;;8.41;100.00
43436;BME280;36399;51.444;-2.018;2023-02-28T15:02:23;102254.44;;;8.42;100.00
43436;BME280;36399;51.444;-2.018;2023-02-28T15:04:58;102236.13;;;7.92;100.00
43436;BME280;36399;51.444;-2.018;2023-02-28T15:07:26;102253.44;;;7.90;100.00
43436;BME280;36399;51.444;-2.018;2023-02-28T15:12:52;102243.47;;;7.99;100.00
43436;BME280;36399;51.444;-2.018;2023-02-28T15:15:19;102234.94;;;8.03;100.00
43436;BME280;36399;51.444;-2.018;2023-02-28T15:17:50;102226.72;;;7.79;100.00
43436;BME280;36399;51.444;-2.018;2023-02-28T15:20:18;102229.28;;;7.29;100.00
43436;BME280;36399;51.444;-2.018;2023-02-28T15:22:46;102230.41;;;7.34;100.00
43436;BME280;36399;51.444;-2.018;2023-02-28T15:25:15;102235.47;;;7.47;100.00
43436;BME280;36399;51.444;-2.018;2023-02-28T15:27:48;102233.66;;;7.79;100.00
43436;BME280;36399;51.444;-2.018;2023-02-28T15:30:21;102235.06;;;7.56;100.00
43436;BME280;36399;51.444;-2.018;2023-02-28T15:33:20;102240.69;;;7.64;100.00
43436;BME280;36399;51.444;-2.018;2023-02-28T15:35:47;102243.41;;;7.81;100.00
43436;BME280;36399;51.444;-2.018;2023-02-28T15:38:23;102217.16;;;7.64;100.00
43436;BME280;36399;51.444;-2.018;2023-02-28T15:40:55;102250.59;;;7.37;100.00
43436;BME280;36399;51.444;-2.018;2023-02-28T15:43:30;102246.53;;;7.27;100.00
43436;BME280;36399;51.444;-2.018;2023-02-28T15:46:07;102246.22;;;7.21;100.00
43436;BME280;36399;51.444;-2.018;2023-02-28T15:48:54;102245.31;;;7.20;100.00
43436;BME280;36399;51.444;-2.018;2023-02-28T15:51:30;102245.28;;;7.84;100.00
43436;BME280;36399;51.444;-2.018;2023-02-28T15:54:10;102233.13;;;8.35;100.00
43436;BME280;36399;51.444;-2.018;2023-02-28T15:56:43;102221.31;;;8.43;100.00
43436;BME280;36399;51.444;-2.018;2023-02-28T15:59:19;102230.19;;;8.30;100.00
43436;BME280;36399;51.444;-2.018;2023-02-28T16:01:46;102226.91;;;8.16;100.00
43436;BME280;36399;51.444;-2.018;2023-02-28T16:04:18;102232.91;;;8.32;100.00
43436;BME280;36399;51.444;-2.018;2023-02-28T16:07:00;102236.19;;;8.44;100.00
43436;BME280;36399;51.444;-2.018;2023-02-28T16:09:27;102227.41;;;8.79;100.00
43436;BME280;36399;51.444;-2.018;2023-02-28T16:11:55;102219.81;;;8.48;100.00
43436;BME280;36399;51.444;-2.018;2023-02-28T16:14:27;102229.88;;;8.06;100.00
43436;BME280;36399;51.444;-2.018;2023-02-28T16:16:57;102227.59;;;7.80;100.00
43436;BME280;36399;51.444;-2.018;2023-02-28T16:19:27;102237.44;;;7.35;100.00